createdAt,value
2023-05-22T00:00:09.458Z,8.45
2023-05-22T00:02:43.446Z,8.45
2023-05-22T00:05:15.199Z,8.02
2023-05-22T00:07:43.654Z,8.45
2023-05-22T00:10:11.502Z,9.05
2023-05-22T00:12:38.664Z,8.65
2023-05-22T00:15:06.601Z,8.40
2023-05-22T00:17:35.240Z,7.90
2023-05-22T00:20:06.101Z,7.57
2023-05-22T00:22:37.175Z,7.53
2023-05-22T00:25:05.823Z,7.95
2023-05-22T00:27:35.005Z,8.50
2023-05-22T00:30:05.098Z,8.43
2023-05-22T00:32:34.333Z,7.55
2023-05-22T00:35:02.063Z,8.48
2023-05-22T00:37:30.316Z,7.07
2023-05-22T00:39:57.699Z,7.82
2023-05-22T00:42:25.263Z,7.07
2023-05-22T00:44:54.779Z,8.07
2023-05-22T00:47:24.125Z,7.85
2023-05-22T00:49:58.016Z,7.95
2023-05-22T00:54:54.453Z,7.70
2023-05-22T00:57:28.277Z,7.10
2023-05-22T00:59:56.971Z,6.82
2023-05-22T01:02:26.502Z,7.50
2023-05-22T01:04:57.154Z,7.05
2023-05-22T01:07:25.417Z,7.82
2023-05-22T01:09:53.060Z,8.13
2023-05-22T01:12:32.156Z,7.32
2023-05-22T01:15:03.131Z,7.93
2023-05-22T01:17:55.647Z,7.28
2023-05-22T01:20:33.739Z,7.28
2023-05-22T01:23:20.297Z,6.93
2023-05-22T01:26:18.637Z,7.25
2023-05-22T01:29:14.707Z,7.18
2023-05-22T01:31:46.080Z,7.20
2023-05-22T01:34:16.708Z,6.88
2023-05-22T01:36:46.477Z,6.63
2023-05-22T01:39:15.709Z,6.75
2023-05-22T01:41:43.895Z,6.90
2023-05-22T01:44:11.268Z,6.45
2023-05-22T01:46:44.628Z,6.57
2023-05-22T01:49:12.379Z,6.85
2023-05-22T01:52:24.463Z,6.85
2023-05-22T01:55:03.957Z,6.93
2023-05-22T01:57:59.885Z,6.28
2023-05-22T02:00:29.446Z,6.10
2023-05-22T02:03:18.074Z,6.85
2023-05-22T02:05:50.269Z,6.88
2023-05-22T02:08:20.609Z,5.93
2023-05-22T02:10:50.445Z,5.88
2023-05-22T02:13:24.421Z,6.57
2023-05-22T02:15:52.921Z,7.18
2023-05-22T02:18:20.344Z,7.45
2023-05-22T02:20:47.877Z,6.88
2023-05-22T02:23:16.536Z,7.18
2023-05-22T02:25:45.948Z,7.63
2023-05-22T02:28:15.528Z,6.28
2023-05-22T02:30:42.746Z,7.82
2023-05-22T02:33:10.211Z,7.78
2023-05-22T02:35:37.739Z,7.82
2023-05-22T02:38:05.334Z,6.85
2023-05-22T02:40:33.675Z,6.65
2023-05-22T02:43:01.018Z,7.57
2023-05-22T02:45:29.793Z,8.50
2023-05-22T02:47:58.717Z,7.50
2023-05-22T02:50:26.021Z,7.70
2023-05-22T02:52:59.653Z,7.63
2023-05-22T02:55:27.055Z,7.40
2023-05-22T02:57:54.483Z,7.82
2023-05-22T03:00:23.347Z,7.55
2023-05-22T03:02:51.721Z,8.15
2023-05-22T03:05:20.099Z,7.68
2023-05-22T03:07:48.734Z,7.47
2023-05-22T03:10:16.724Z,7.20
2023-05-22T03:12:44.933Z,7.60
2023-05-22T03:15:12.662Z,7.38
2023-05-22T03:17:39.896Z,8.55
2023-05-22T03:20:17.341Z,10.38
2023-05-22T03:22:46.216Z,7.47
2023-05-22T03:25:13.585Z,7.03
2023-05-22T03:27:41.557Z,6.55
2023-05-22T03:30:10.283Z,7.60
2023-05-22T03:32:38.159Z,8.68
2023-05-22T03:35:06.477Z,7.15
2023-05-22T03:37:34.861Z,7.63
2023-05-22T03:40:02.692Z,7.40
2023-05-22T03:42:30.854Z,8.70
2023-05-22T03:45:00.394Z,7.68
2023-05-22T03:47:30.031Z,24.08
2023-05-22T03:49:57.428Z,11.63
2023-05-22T03:52:25.096Z,9.32
2023-05-22T03:54:54.418Z,14.80
2023-05-22T03:57:22.824Z,8.57
2023-05-22T03:59:50.300Z,7.55
2023-05-22T04:02:17.862Z,7.03
2023-05-22T04:04:47.703Z,9.63
2023-05-22T04:07:15.467Z,9.65
2023-05-22T04:09:42.657Z,9.18
2023-05-22T04:12:12.214Z,10.35
2023-05-22T04:14:39.631Z,9.23
2023-05-22T04:17:12.274Z,8.70
2023-05-22T04:19:39.750Z,8.38
2023-05-22T04:22:07.238Z,9.38
2023-05-22T04:24:34.588Z,11.13
2023-05-22T04:27:03.223Z,9.60
2023-05-22T04:29:31.514Z,10.38
2023-05-22T04:32:00.641Z,9.75
2023-05-22T04:34:28.947Z,9.35
2023-05-22T04:36:56.682Z,9.18
2023-05-22T04:39:26.609Z,9.02
2023-05-22T04:42:06.077Z,10.48
2023-05-22T04:44:34.752Z,7.40
2023-05-22T04:47:03.958Z,7.63
2023-05-22T04:49:32.438Z,6.65
2023-05-22T04:52:05.010Z,6.47
2023-05-22T04:54:34.551Z,6.80
2023-05-22T04:57:03.496Z,6.30
2023-05-22T04:59:33.762Z,6.80
2023-05-22T05:02:01.744Z,5.90
2023-05-22T05:04:29.007Z,5.05
2023-05-22T05:06:57.943Z,5.82
2023-05-22T05:09:26.064Z,5.60
2023-05-22T05:11:53.619Z,5.60
2023-05-22T05:14:21.721Z,6.07
2023-05-22T05:16:49.254Z,6.05
2023-05-22T05:19:21.733Z,5.82
2023-05-22T05:21:52.752Z,5.63
2023-05-22T05:24:20.344Z,6.50
2023-05-22T05:26:47.779Z,5.80
2023-05-22T05:29:16.191Z,5.95
2023-05-22T05:31:43.683Z,5.70
2023-05-22T05:34:11.377Z,5.88
2023-05-22T05:36:38.575Z,5.57
2023-05-22T05:39:06.069Z,5.72
2023-05-22T05:41:33.607Z,6.05
2023-05-22T05:44:01.778Z,5.82
2023-05-22T05:46:29.096Z,5.78
2023-05-22T05:48:56.396Z,5.45
2023-05-22T05:51:23.997Z,4.93
2023-05-22T05:53:51.499Z,5.63
2023-05-22T05:56:18.786Z,6.00
2023-05-22T05:58:46.209Z,5.80
2023-05-22T06:01:13.623Z,5.93
2023-05-22T06:03:46.907Z,5.95
2023-05-22T06:06:14.406Z,5.75
2023-05-22T06:08:47.898Z,6.07
2023-05-22T06:11:15.258Z,5.88
2023-05-22T06:13:43.718Z,6.30
2023-05-22T06:16:11.285Z,5.80
2023-05-22T06:18:38.837Z,6.10
2023-05-22T06:21:07.786Z,5.47
2023-05-22T06:23:36.232Z,5.90
2023-05-22T06:26:03.685Z,5.68
2023-05-22T06:28:31.086Z,5.90
2023-05-22T06:30:58.672Z,6.35
2023-05-22T06:33:27.011Z,7.05
2023-05-22T06:35:54.437Z,5.68
2023-05-22T06:38:22.231Z,6.13
2023-05-22T06:40:50.022Z,5.78
2023-05-22T06:43:17.301Z,5.78
2023-05-22T06:45:45.151Z,5.60
2023-05-22T06:48:13.101Z,7.30
2023-05-22T06:50:40.501Z,5.63
2023-05-22T06:53:09.384Z,5.07
2023-05-22T06:55:36.631Z,5.32
2023-05-22T06:58:04.192Z,5.95
2023-05-22T07:00:32.115Z,5.63
2023-05-22T07:02:59.757Z,5.38
2023-05-22T07:05:27.064Z,5.07
2023-05-22T07:07:54.621Z,5.68
2023-05-22T07:10:22.008Z,5.18
2023-05-22T07:13:01.786Z,5.35
2023-05-22T07:15:35.997Z,5.53
2023-05-22T07:18:05.677Z,4.50
2023-05-22T07:20:34.292Z,5.20
2023-05-22T07:23:01.805Z,5.32
2023-05-22T07:25:29.476Z,5.10
2023-05-22T07:27:58.736Z,4.60
2023-05-22T07:30:26.290Z,4.80
2023-05-22T07:32:56.835Z,5.10
2023-05-22T07:35:24.194Z,4.90
2023-05-22T07:37:51.648Z,4.25
2023-05-22T07:40:19.132Z,5.00
2023-05-22T07:42:46.484Z,4.72
2023-05-22T07:45:14.557Z,4.53
2023-05-22T07:47:42.998Z,4.47
2023-05-22T07:50:11.773Z,4.70
2023-05-22T07:52:39.729Z,4.63
2023-05-22T07:55:08.249Z,4.63
2023-05-22T07:57:36.581Z,4.63
2023-05-22T08:00:14.157Z,4.10
2023-05-22T08:02:42.050Z,4.05
2023-05-22T08:05:10.500Z,4.25
2023-05-22T08:07:39.143Z,4.15
2023-05-22T08:10:16.136Z,3.95
2023-05-22T08:12:44.413Z,3.90
2023-05-22T08:15:12.664Z,4.07
2023-05-22T08:17:40.234Z,4.40
2023-05-22T08:20:09.629Z,4.32
2023-05-22T08:22:39.795Z,3.65
2023-05-22T08:25:11.729Z,4.05
2023-05-22T08:27:40.550Z,3.50
2023-05-22T08:30:08.623Z,3.55
2023-05-22T08:32:36.119Z,3.45
2023-05-22T08:35:03.696Z,3.40
2023-05-22T08:37:32.098Z,3.22
2023-05-22T08:39:59.655Z,3.58
2023-05-22T08:42:27.095Z,3.88
2023-05-22T08:45:07.529Z,3.22
2023-05-22T08:47:43.006Z,3.08
2023-05-22T08:50:11.714Z,3.08
2023-05-22T08:52:55.047Z,2.67
2023-05-22T08:55:22.804Z,3.10
2023-05-22T08:57:50.676Z,3.00
2023-05-22T09:00:19.919Z,3.22
2023-05-22T09:02:48.328Z,2.92
2023-05-22T09:05:19.906Z,2.80
2023-05-22T09:07:49.205Z,3.00
2023-05-22T09:10:16.589Z,3.55
2023-05-22T09:13:08.152Z,3.03
2023-05-22T09:15:38.866Z,3.05
2023-05-22T09:18:06.925Z,2.92
2023-05-22T09:20:39.540Z,3.15
2023-05-22T09:23:20.106Z,3.03
2023-05-22T09:25:48.566Z,2.90
2023-05-22T09:28:16.159Z,2.95
2023-05-22T09:30:49.928Z,2.78
2023-05-22T09:33:18.242Z,2.80
2023-05-22T09:35:50.070Z,2.72
2023-05-22T09:38:22.384Z,2.97
2023-05-22T09:40:54.789Z,2.70
2023-05-22T09:43:26.062Z,3.38
2023-05-22T09:46:02.827Z,3.03
2023-05-22T09:48:38.709Z,3.10
2023-05-22T09:51:07.640Z,3.40
2023-05-22T09:53:36.283Z,3.15
2023-05-22T09:56:10.381Z,3.40
2023-05-22T09:58:42.066Z,3.50
2023-05-22T10:01:14.257Z,3.17
2023-05-22T10:03:45.864Z,3.17
2023-05-22T10:06:16.710Z,3.05
2023-05-22T10:08:51.142Z,3.10
2023-05-22T10:11:18.997Z,3.20
2023-05-22T10:13:48.239Z,3.15
2023-05-22T10:16:17.089Z,3.38
2023-05-22T10:18:47.204Z,5.95
2023-05-22T10:21:16.945Z,3.08
2023-05-22T10:23:44.782Z,2.90
2023-05-22T10:26:12.781Z,3.28
2023-05-22T10:28:47.638Z,2.90
2023-05-22T10:32:08.707Z,3.45
2023-05-22T10:34:51.073Z,3.45
2023-05-22T10:37:31.907Z,3.30
2023-05-22T10:40:10.108Z,3.30
2023-05-22T10:42:40.364Z,3.47
2023-05-22T10:45:09.177Z,3.20
2023-05-22T10:47:37.228Z,3.25
2023-05-22T10:50:11.888Z,3.00
2023-05-22T10:52:41.272Z,3.60
2023-05-22T10:55:10.152Z,3.00
2023-05-22T10:57:42.561Z,3.00
2023-05-22T11:00:15.962Z,3.10
2023-05-22T11:05:34.795Z,3.47
2023-05-22T11:08:27.882Z,3.30
2023-05-22T11:10:59.378Z,3.17
2023-05-22T11:13:34.831Z,3.22
2023-05-22T11:16:06.600Z,3.00
2023-05-22T11:18:35.163Z,3.40
2023-05-22T11:21:02.696Z,2.92
2023-05-22T11:23:34.197Z,3.30
2023-05-22T11:26:20.719Z,3.40
2023-05-22T11:28:54.675Z,3.10
2023-05-22T11:31:23.679Z,3.70
2023-05-22T11:33:51.296Z,3.13
2023-05-22T11:36:19.067Z,3.05
2023-05-22T11:38:47.525Z,3.20
2023-05-22T11:41:16.117Z,3.60
2023-05-22T11:43:43.570Z,3.50
2023-05-22T11:46:12.012Z,4.82
2023-05-22T11:48:43.240Z,3.33
2023-05-22T11:51:11.182Z,3.30
2023-05-22T11:53:38.994Z,3.60
2023-05-22T11:56:08.045Z,3.45
2023-05-22T11:58:41.389Z,3.30
2023-05-22T12:01:09.078Z,3.20
2023-05-22T12:03:36.449Z,3.35
2023-05-22T12:06:05.725Z,3.00
2023-05-22T12:08:34.971Z,2.90
2023-05-22T12:11:12.646Z,3.05
2023-05-22T12:13:42.092Z,3.05
2023-05-22T12:16:20.442Z,3.03
2023-05-22T12:18:56.059Z,3.20
2023-05-22T12:21:23.423Z,3.30
2023-05-22T12:23:52.974Z,3.22
2023-05-22T12:26:21.945Z,3.20
2023-05-22T12:28:54.137Z,3.33
2023-05-22T12:31:23.089Z,3.22
2023-05-22T12:33:53.870Z,3.00
2023-05-22T12:36:22.058Z,3.15
2023-05-22T12:38:50.368Z,3.13
2023-05-22T12:41:17.802Z,3.25
2023-05-22T12:43:44.915Z,3.38
2023-05-22T12:46:12.246Z,3.42
2023-05-22T12:48:39.701Z,3.45
2023-05-22T12:51:09.600Z,3.60
2023-05-22T12:53:37.217Z,3.25
2023-05-22T12:56:06.118Z,3.25
2023-05-22T12:58:39.302Z,3.33
2023-05-22T13:01:06.825Z,4.18
2023-05-22T13:03:35.423Z,3.38
2023-05-22T13:06:03.763Z,3.33
2023-05-22T13:08:31.380Z,5.13
2023-05-22T13:11:05.150Z,3.45
2023-05-22T13:13:33.085Z,3.67
2023-05-22T13:16:01.029Z,3.70
2023-05-22T13:18:28.672Z,3.05
2023-05-22T13:21:00.555Z,3.30
2023-05-22T13:23:28.237Z,3.38
2023-05-22T13:25:55.644Z,3.42
2023-05-22T13:28:24.177Z,3.42
2023-05-22T13:30:51.655Z,3.25
2023-05-22T13:33:21.463Z,3.47
2023-05-22T13:35:49.051Z,4.00
2023-05-22T13:38:16.549Z,3.58
2023-05-22T13:40:45.711Z,3.42
2023-05-22T13:43:14.790Z,3.60
2023-05-22T13:45:44.154Z,3.00
2023-05-22T13:48:12.083Z,3.33
2023-05-22T13:50:39.881Z,3.25
2023-05-22T13:53:08.187Z,3.63
2023-05-22T13:55:36.454Z,3.10
2023-05-22T13:58:05.655Z,3.35
2023-05-22T14:00:33.199Z,3.30
2023-05-22T14:03:01.086Z,3.30
2023-05-22T14:05:28.746Z,3.88
2023-05-22T14:07:57.186Z,3.45
2023-05-22T14:10:34.919Z,3.58
2023-05-22T14:13:03.876Z,3.67
2023-05-22T14:15:32.258Z,4.10
2023-05-22T14:17:59.782Z,8.52
2023-05-22T14:20:30.480Z,16.52
2023-05-22T14:22:58.360Z,6.68
2023-05-22T14:25:26.654Z,4.50
2023-05-22T14:27:54.173Z,4.50
2023-05-22T14:30:21.740Z,4.22
2023-05-22T14:32:49.139Z,4.03
2023-05-22T14:35:17.031Z,3.78
2023-05-22T14:37:45.077Z,3.90
2023-05-22T14:40:12.545Z,3.60
2023-05-22T14:42:41.017Z,3.75
2023-05-22T14:45:09.716Z,4.15
2023-05-22T14:47:37.025Z,3.55
2023-05-22T14:50:18.018Z,3.80
2023-05-22T14:52:46.059Z,3.38
2023-05-22T14:55:13.424Z,3.42
2023-05-22T14:57:40.875Z,3.42
2023-05-22T15:00:11.248Z,3.72
2023-05-22T15:02:38.560Z,3.60
2023-05-22T15:05:07.573Z,4.70
2023-05-22T15:10:08.437Z,3.53
2023-05-22T15:12:35.997Z,3.63
2023-05-22T15:15:04.864Z,3.85
2023-05-22T15:17:32.545Z,3.33
2023-05-22T15:20:00.186Z,3.72
2023-05-22T15:22:27.644Z,3.60
2023-05-22T15:25:12.012Z,3.75
2023-05-22T15:27:40.317Z,3.72
2023-05-22T15:30:12.501Z,3.75
2023-05-22T15:32:39.951Z,3.50
2023-05-22T15:35:08.142Z,3.40
2023-05-22T15:37:36.799Z,3.65
2023-05-22T15:40:09.958Z,3.10
2023-05-22T15:42:38.906Z,4.20
2023-05-22T15:45:06.819Z,4.00
2023-05-22T15:47:35.597Z,3.95
2023-05-22T15:50:09.731Z,4.78
2023-05-22T15:52:38.256Z,4.28
2023-05-22T15:55:05.748Z,4.53
2023-05-22T15:57:39.105Z,4.57
2023-05-22T16:00:08.942Z,4.13
2023-05-22T16:02:46.458Z,4.60
2023-05-22T16:05:20.181Z,4.10
2023-05-22T16:07:49.594Z,3.80
2023-05-22T16:10:18.500Z,3.72
2023-05-22T16:12:46.574Z,3.95
2023-05-22T16:15:14.138Z,3.80
2023-05-22T16:17:42.673Z,3.50
2023-05-22T16:20:12.242Z,3.63
2023-05-22T16:22:48.277Z,4.30
2023-05-22T16:25:18.041Z,3.83
2023-05-22T16:27:46.310Z,3.90
2023-05-22T16:30:17.099Z,3.85
2023-05-22T16:32:48.839Z,3.65
2023-05-22T16:35:17.066Z,4.00
2023-05-22T16:37:46.329Z,3.67
2023-05-22T16:40:13.886Z,3.65
2023-05-22T16:42:42.468Z,3.80
2023-05-22T16:45:10.198Z,3.75
2023-05-22T16:47:37.922Z,3.80
2023-05-22T16:50:05.905Z,3.65
2023-05-22T16:52:34.389Z,3.97
2023-05-22T16:55:02.079Z,4.03
2023-05-22T16:57:35.357Z,3.80
2023-05-22T17:00:04.153Z,3.58
2023-05-22T17:02:33.790Z,3.83
2023-05-22T17:05:02.776Z,4.15
2023-05-22T17:07:32.058Z,4.50
2023-05-22T17:09:59.409Z,3.80
2023-05-22T17:12:26.904Z,3.67
2023-05-22T17:14:54.345Z,4.00
2023-05-22T17:17:21.782Z,4.18
2023-05-22T17:19:49.218Z,3.92
2023-05-22T17:22:16.742Z,4.03
2023-05-22T17:24:44.230Z,4.15
2023-05-22T17:27:12.788Z,3.80
2023-05-22T17:29:46.796Z,3.90
2023-05-22T17:32:14.284Z,4.50
2023-05-22T17:34:41.661Z,3.85
2023-05-22T17:37:10.626Z,3.80
2023-05-22T17:39:39.230Z,4.40
2023-05-22T17:42:06.835Z,4.30
2023-05-22T17:44:34.157Z,4.10
2023-05-22T17:47:01.856Z,3.55
2023-05-22T17:49:30.253Z,4.25
2023-05-22T17:51:58.624Z,4.47
2023-05-22T17:54:26.058Z,5.75
2023-05-22T17:56:55.341Z,5.20
2023-05-22T17:59:22.504Z,4.18
2023-05-22T18:01:50.117Z,4.15
2023-05-22T18:04:17.575Z,4.68
2023-05-22T18:06:50.613Z,4.32
2023-05-22T18:09:18.083Z,4.30
2023-05-22T18:11:45.536Z,4.28
2023-05-22T18:14:14.020Z,4.10
2023-05-22T18:16:41.510Z,4.47
2023-05-22T18:19:08.963Z,4.60
2023-05-22T18:21:36.536Z,4.60
2023-05-22T18:24:06.464Z,4.70
2023-05-22T18:26:33.919Z,4.72
2023-05-22T18:29:01.454Z,4.88
2023-05-22T18:31:28.926Z,4.78
2023-05-22T18:33:56.310Z,5.43
2023-05-22T18:36:23.649Z,4.90
2023-05-22T18:38:51.003Z,4.78
2023-05-22T18:41:19.332Z,5.25
2023-05-22T18:43:46.535Z,5.13
2023-05-22T18:46:14.046Z,6.57
2023-05-22T18:48:42.421Z,6.18
2023-05-22T18:51:09.888Z,6.03
2023-05-22T18:53:37.278Z,6.70
2023-05-22T18:56:04.920Z,6.43
2023-05-22T18:58:32.238Z,6.20
2023-05-22T19:01:02.467Z,7.13
2023-05-22T19:03:30.332Z,5.75
2023-05-22T19:05:57.769Z,5.15
2023-05-22T19:08:38.507Z,5.65
2023-05-22T19:11:08.026Z,6.03
2023-05-22T19:13:36.491Z,6.13
2023-05-22T19:16:04.917Z,6.38
2023-05-22T19:18:32.746Z,5.82
2023-05-22T19:21:00.432Z,6.45
2023-05-22T19:23:29.725Z,6.45
2023-05-22T19:25:58.605Z,6.50
2023-05-22T19:28:26.705Z,6.40
2023-05-22T19:30:57.927Z,7.05
2023-05-22T19:33:27.949Z,6.70
2023-05-22T19:35:56.609Z,6.85
2023-05-22T19:38:31.422Z,6.78
2023-05-22T19:40:58.685Z,7.85
2023-05-22T19:43:26.038Z,7.80
2023-05-22T19:45:54.640Z,7.63
2023-05-22T19:48:22.079Z,7.90
2023-05-22T19:50:49.281Z,8.07
2023-05-22T19:53:16.833Z,7.40
2023-05-22T19:55:44.160Z,7.88
2023-05-22T19:58:12.062Z,7.00
2023-05-22T20:00:41.553Z,7.60
2023-05-22T20:03:12.111Z,8.35
2023-05-22T20:05:39.992Z,7.45
2023-05-22T20:08:07.972Z,7.28
2023-05-22T20:10:35.344Z,7.90
2023-05-22T20:13:02.901Z,7.60
2023-05-22T20:15:33.132Z,5.85
2023-05-22T20:18:02.941Z,6.45
2023-05-22T20:20:30.497Z,6.90
2023-05-22T20:22:59.361Z,5.80
2023-05-22T20:25:27.003Z,6.65
2023-05-22T20:27:56.327Z,5.90
2023-05-22T20:30:23.970Z,5.65
2023-05-22T20:32:52.326Z,6.70
2023-05-22T20:35:20.501Z,6.00
2023-05-22T20:37:55.388Z,6.15
2023-05-22T20:40:26.792Z,7.07
2023-05-22T20:42:53.856Z,6.28
2023-05-22T20:45:22.606Z,6.55
2023-05-22T20:47:50.229Z,6.18
2023-05-22T20:50:18.781Z,5.90
2023-05-22T20:52:46.317Z,6.40
2023-05-22T20:55:13.661Z,6.90
2023-05-22T20:57:42.113Z,6.50
2023-05-22T21:00:11.450Z,5.68
2023-05-22T21:02:42.218Z,6.70
2023-05-22T21:05:10.723Z,6.05
2023-05-22T21:07:38.155Z,6.15
2023-05-22T21:10:23.558Z,6.93
2023-05-22T21:12:52.039Z,6.93
2023-05-22T21:15:19.501Z,6.10
2023-05-22T21:17:48.001Z,6.28
2023-05-22T21:20:15.448Z,6.10
2023-05-22T21:22:42.842Z,7.40
2023-05-22T21:25:11.475Z,7.10
2023-05-22T21:27:38.908Z,6.47
2023-05-22T21:30:06.754Z,7.30
2023-05-22T21:32:34.377Z,8.52
2023-05-22T21:35:05.061Z,7.35
2023-05-22T21:37:34.483Z,8.27
2023-05-22T21:40:03.045Z,9.55
2023-05-22T21:42:44.543Z,7.82
2023-05-22T21:45:13.300Z,8.10
2023-05-22T21:47:40.898Z,7.43
2023-05-22T21:50:09.518Z,7.20
2023-05-22T21:52:36.830Z,7.00
2023-05-22T21:55:06.213Z,7.07
2023-05-22T21:57:33.633Z,7.53
2023-05-22T22:00:01.121Z,7.78
2023-05-22T22:02:29.652Z,7.43
2023-05-22T22:04:57.034Z,7.60
2023-05-22T22:07:24.543Z,6.97
2023-05-22T22:09:52.131Z,7.28
2023-05-22T22:12:21.727Z,12.88
2023-05-22T22:14:50.079Z,10.80
2023-05-22T22:17:23.985Z,9.65
2023-05-22T22:19:57.267Z,8.82
2023-05-22T22:22:31.248Z,8.20
2023-05-22T22:24:58.749Z,7.75
2023-05-22T22:27:27.285Z,7.72
2023-05-22T22:29:54.671Z,8.65
2023-05-22T22:32:23.072Z,8.48
2023-05-22T22:34:54.049Z,8.60
2023-05-22T22:37:22.727Z,9.70
2023-05-22T22:39:50.070Z,13.40
2023-05-22T22:42:17.629Z,12.00
2023-05-22T22:44:45.117Z,11.65
2023-05-22T22:47:12.448Z,9.80
2023-05-22T22:49:39.955Z,9.25
2023-05-22T22:52:09.423Z,9.65
2023-05-22T22:54:37.952Z,9.85
2023-05-22T22:57:11.528Z,10.32
2023-05-22T22:59:39.022Z,10.07
2023-05-22T23:02:06.481Z,9.05
2023-05-22T23:04:34.169Z,9.70
2023-05-22T23:07:03.230Z,9.52
2023-05-22T23:09:30.395Z,8.90
2023-05-22T23:11:57.848Z,9.73
2023-05-22T23:14:31.118Z,14.30
2023-05-22T23:16:58.469Z,10.05
2023-05-22T23:19:26.138Z,11.38
2023-05-22T23:21:54.396Z,10.27
2023-05-22T23:24:24.058Z,12.40
2023-05-22T23:26:53.114Z,11.75
2023-05-22T23:29:20.750Z,12.32
2023-05-22T23:31:50.749Z,11.02
2023-05-22T23:34:20.776Z,10.93
2023-05-22T23:36:52.962Z,11.50
2023-05-22T23:39:22.550Z,10.65
2023-05-22T23:41:50.060Z,11.68
2023-05-22T23:44:18.472Z,15.18
2023-05-22T23:46:47.949Z,31.38
2023-05-22T23:49:16.162Z,10.32
2023-05-22T23:51:43.487Z,10.95
2023-05-22T23:54:11.600Z,11.25
2023-05-22T23:56:39.571Z,21.90
2023-05-22T23:59:07.169Z,58.53
